createdAt,value
2018-07-24T00:00:00.383Z,16.40
2018-07-24T00:02:32.443Z,15.90
2018-07-24T00:05:04.824Z,15.03
2018-07-24T00:07:36.563Z,16.93
2018-07-24T00:10:09.063Z,16.90
2018-07-24T00:12:41.563Z,15.03
2018-07-24T00:15:13.783Z,15.60
2018-07-24T00:17:47.223Z,14.93
2018-07-24T00:20:18.263Z,15.30
2018-07-24T00:22:50.402Z,15.97
2018-07-24T00:25:22.422Z,14.90
2018-07-24T00:27:54.462Z,15.87
2018-07-24T00:30:26.243Z,16.30
2018-07-24T00:32:58.404Z,15.07
2018-07-24T00:35:30.362Z,14.67
2018-07-24T00:38:02.585Z,15.40
2018-07-24T00:40:36.063Z,15.67
2018-07-24T00:43:08.904Z,15.47
2018-07-24T00:45:41.062Z,15.47
2018-07-24T00:48:12.863Z,14.77
2018-07-24T00:50:44.848Z,15.37
2018-07-24T00:53:16.883Z,13.80
2018-07-24T00:55:48.923Z,14.73
2018-07-24T00:58:20.842Z,15.00
2018-07-24T01:00:53.462Z,14.13
2018-07-24T01:03:26.463Z,14.57
2018-07-24T01:05:58.382Z,14.70
2018-07-24T01:08:30.460Z,15.77
2018-07-24T01:11:02.623Z,15.37
2018-07-24T01:13:34.559Z,15.40
2018-07-24T01:16:07.202Z,15.20
2018-07-24T01:18:39.203Z,16.50
2018-07-24T01:21:11.263Z,16.43
2018-07-24T01:23:43.743Z,15.80
2018-07-24T01:26:15.203Z,14.77
2018-07-24T01:28:46.543Z,15.17
2018-07-24T01:31:18.543Z,15.33
2018-07-24T01:33:50.183Z,15.10
2018-07-24T01:36:22.082Z,15.80
2018-07-24T01:38:54.283Z,15.03
2018-07-24T01:41:26.562Z,16.10
2018-07-24T01:43:59.322Z,16.43
2018-07-24T01:46:31.362Z,15.77
2018-07-24T01:49:02.643Z,15.67
2018-07-24T01:51:34.243Z,14.97
2018-07-24T01:54:06.043Z,15.83
2018-07-24T01:56:37.742Z,14.63
2018-07-24T01:59:09.363Z,16.50
2018-07-24T02:01:41.462Z,14.60
2018-07-24T02:04:13.623Z,14.40
2018-07-24T02:06:45.425Z,14.33
2018-07-24T02:09:17.282Z,15.97
2018-07-24T02:11:50.226Z,15.20
2018-07-24T02:14:22.723Z,16.10
2018-07-24T02:16:54.663Z,15.50
2018-07-24T02:19:27.123Z,14.90
2018-07-24T02:21:58.883Z,14.27
2018-07-24T02:24:30.783Z,15.37
2018-07-24T02:27:02.329Z,15.37
2018-07-24T02:29:33.843Z,14.70
2018-07-24T02:32:05.445Z,15.43
2018-07-24T02:34:37.703Z,15.50
2018-07-24T02:37:09.503Z,14.80
2018-07-24T02:39:41.583Z,15.23
2018-07-24T02:42:13.703Z,14.50
2018-07-24T02:44:45.543Z,15.60
2018-07-24T02:47:17.643Z,16.80
2018-07-24T02:49:49.783Z,14.83
2018-07-24T02:52:21.483Z,15.00
2018-07-24T02:54:52.803Z,15.53
2018-07-24T02:57:24.651Z,16.47
2018-07-24T02:59:56.943Z,15.50
2018-07-24T03:02:28.606Z,15.10
2018-07-24T03:04:59.984Z,16.30
2018-07-24T03:07:32.542Z,15.40
2018-07-24T03:10:04.323Z,15.50
2018-07-24T03:12:36.903Z,15.43
2018-07-24T03:15:09.563Z,15.73
2018-07-24T03:17:41.263Z,16.10
2018-07-24T03:20:12.964Z,15.43
2018-07-24T03:22:44.484Z,15.13
2018-07-24T03:25:16.063Z,15.70
2018-07-24T03:27:47.483Z,14.93
2018-07-24T03:30:19.363Z,17.27
2018-07-24T03:32:51.383Z,14.83
2018-07-24T03:35:22.663Z,15.23
2018-07-24T03:37:55.071Z,15.00
2018-07-24T03:40:26.303Z,15.40
2018-07-24T03:42:58.362Z,14.87
2018-07-24T03:45:30.403Z,15.20
2018-07-24T03:48:01.610Z,15.37
2018-07-24T03:50:33.807Z,15.50
2018-07-24T03:53:05.262Z,16.23
2018-07-24T03:55:37.203Z,14.83
2018-07-24T03:58:08.704Z,15.57
2018-07-24T04:00:40.484Z,31.00
2018-07-24T04:03:12.443Z,17.53
2018-07-24T04:05:43.603Z,17.13
2018-07-24T04:08:16.004Z,19.80
2018-07-24T04:10:47.523Z,15.37
2018-07-24T04:13:19.143Z,15.00
2018-07-24T04:15:50.322Z,14.77
2018-07-24T04:18:22.387Z,15.10
2018-07-24T04:20:54.724Z,14.67
2018-07-24T04:23:25.863Z,16.57
2018-07-24T04:25:57.283Z,15.80
2018-07-24T04:28:29.482Z,15.63
2018-07-24T04:31:01.310Z,16.00
2018-07-24T04:33:33.247Z,16.10
2018-07-24T04:36:04.925Z,16.13
2018-07-24T04:38:37.744Z,15.23
2018-07-24T04:41:09.523Z,15.23
2018-07-24T04:43:41.323Z,15.50
2018-07-24T04:46:13.303Z,15.77
2018-07-24T04:48:44.943Z,15.87
2018-07-24T04:51:17.503Z,15.53
2018-07-24T04:53:48.963Z,15.93
2018-07-24T04:56:20.863Z,17.53
2018-07-24T04:58:52.443Z,14.97
2018-07-24T05:01:25.063Z,15.50
2018-07-24T05:03:56.723Z,16.37
2018-07-24T05:06:28.843Z,16.00
2018-07-24T05:09:00.003Z,17.33
2018-07-24T05:11:32.523Z,16.40
2018-07-24T05:14:04.823Z,18.53
2018-07-24T05:16:36.837Z,16.53
2018-07-24T05:19:09.745Z,17.47
2018-07-24T05:21:41.823Z,17.77
2018-07-24T05:24:13.663Z,16.67
2018-07-24T05:26:45.163Z,17.20
2018-07-24T05:29:16.823Z,17.60
2018-07-24T05:31:49.923Z,16.90
2018-07-24T05:34:21.923Z,16.77
2018-07-24T05:36:53.783Z,17.60
2018-07-24T05:39:26.463Z,19.77
2018-07-24T05:41:58.664Z,16.73
2018-07-24T05:44:29.823Z,17.10
2018-07-24T05:47:02.384Z,18.17
2018-07-24T05:49:34.123Z,17.83
2018-07-24T05:52:06.943Z,18.50
2018-07-24T05:54:38.344Z,19.03
2018-07-24T05:57:10.943Z,26.10
2018-07-24T05:59:43.203Z,16.97
2018-07-24T06:02:15.523Z,16.63
2018-07-24T06:04:47.590Z,18.60
2018-07-24T06:07:19.367Z,17.03
2018-07-24T06:09:51.671Z,17.10
2018-07-24T06:12:23.243Z,16.67
2018-07-24T06:14:55.703Z,15.10
2018-07-24T06:17:27.700Z,16.50
2018-07-24T06:19:59.723Z,19.27
2018-07-24T06:22:31.583Z,15.30
2018-07-24T06:25:03.344Z,17.60
2018-07-24T06:27:35.203Z,19.00
2018-07-24T06:30:07.743Z,16.90
2018-07-24T06:32:39.583Z,15.30
2018-07-24T06:35:12.224Z,15.57
2018-07-24T06:37:44.463Z,15.37
2018-07-24T06:40:16.323Z,16.53
2018-07-24T06:42:48.583Z,17.00
2018-07-24T06:45:20.205Z,15.30
2018-07-24T06:47:52.043Z,16.87
2018-07-24T06:50:23.802Z,16.93
2018-07-24T06:52:55.823Z,14.70
2018-07-24T06:55:27.729Z,15.63
2018-07-24T06:57:59.842Z,16.17
2018-07-24T07:00:31.322Z,15.10
2018-07-24T07:03:02.983Z,14.30
2018-07-24T07:05:34.602Z,14.90
2018-07-24T07:08:06.882Z,14.47
2018-07-24T07:10:39.742Z,13.77
2018-07-24T07:13:11.257Z,14.63
2018-07-24T07:15:43.102Z,14.73
2018-07-24T07:18:15.065Z,13.73
2018-07-24T07:20:46.763Z,14.13
2018-07-24T07:23:18.654Z,14.77
2018-07-24T07:25:51.122Z,14.13
2018-07-24T07:28:23.422Z,12.43
2018-07-24T07:30:55.722Z,14.63
2018-07-24T07:33:27.843Z,13.40
2018-07-24T07:35:59.742Z,12.80
2018-07-24T07:38:31.203Z,12.77
2018-07-24T07:41:02.742Z,12.33
2018-07-24T07:43:34.882Z,12.73
2018-07-24T07:46:07.203Z,14.10
2018-07-24T07:48:38.903Z,12.97
2018-07-24T07:51:09.142Z,13.77
2018-07-24T07:53:41.362Z,12.30
2018-07-24T07:56:14.124Z,12.30
2018-07-24T07:58:45.512Z,11.90
2018-07-24T08:01:18.059Z,27.27
2018-07-24T08:03:50.381Z,12.57
2018-07-24T08:06:21.998Z,12.80
2018-07-24T08:08:54.179Z,11.53
2018-07-24T08:11:27.718Z,11.83
2018-07-24T08:13:59.244Z,11.47
2018-07-24T08:16:32.798Z,17.20
2018-07-24T08:19:05.198Z,12.00
2018-07-24T08:21:36.757Z,17.60
2018-07-24T08:24:09.018Z,11.87
2018-07-24T08:26:41.218Z,12.10
2018-07-24T08:29:13.438Z,11.90
2018-07-24T08:31:45.159Z,10.70
2018-07-24T08:34:16.978Z,11.60
2018-07-24T08:36:49.301Z,11.63
2018-07-24T08:39:20.838Z,11.40
2018-07-24T08:41:53.321Z,12.70
2018-07-24T08:44:24.799Z,11.70
2018-07-24T08:46:57.458Z,12.87
2018-07-24T08:49:28.339Z,10.50
2018-07-24T08:52:00.059Z,10.40
2018-07-24T08:54:32.006Z,11.23
2018-07-24T08:57:04.448Z,11.10
2018-07-24T08:59:36.229Z,11.80
2018-07-24T09:02:08.328Z,10.10
2018-07-24T09:04:39.476Z,12.80
2018-07-24T09:07:11.692Z,12.50
2018-07-24T09:09:43.502Z,12.70
2018-07-24T09:12:15.548Z,12.07
2018-07-24T09:14:47.501Z,12.47
2018-07-24T09:17:19.641Z,12.70
2018-07-24T09:19:51.540Z,12.03
2018-07-24T09:22:22.781Z,13.67
2018-07-24T09:24:54.601Z,13.13
2018-07-24T09:27:25.923Z,12.40
2018-07-24T09:29:57.561Z,13.70
2018-07-24T09:32:31.121Z,18.03
2018-07-24T09:35:03.317Z,13.87
2018-07-24T09:37:34.856Z,12.83
2018-07-24T09:40:06.236Z,13.43
2018-07-24T09:42:38.559Z,13.80
2018-07-24T09:45:10.176Z,14.80
2018-07-24T09:47:42.722Z,14.13
2018-07-24T09:50:15.256Z,13.40
2018-07-24T09:52:47.104Z,14.00
2018-07-24T09:55:18.604Z,12.53
2018-07-24T09:57:51.104Z,13.43
2018-07-24T10:00:26.722Z,12.47
2018-07-24T10:02:59.191Z,13.80
2018-07-24T10:05:31.709Z,12.30
2018-07-24T10:08:04.331Z,12.57
2018-07-24T10:10:36.205Z,12.70
2018-07-24T10:13:08.903Z,13.90
2018-07-24T10:15:40.242Z,12.67
2018-07-24T10:18:12.341Z,12.30
2018-07-24T10:20:43.957Z,13.73
2018-07-24T10:23:15.458Z,12.87
2018-07-24T10:25:47.360Z,12.80
2018-07-24T10:28:19.300Z,13.53
2018-07-24T10:30:51.038Z,13.83
2018-07-24T10:33:22.489Z,13.57
2018-07-24T10:35:54.536Z,14.20
2018-07-24T10:38:25.788Z,14.30
2018-07-24T10:40:57.995Z,13.83
2018-07-24T10:43:30.690Z,14.23
2018-07-24T10:46:02.209Z,13.40
2018-07-24T10:48:34.283Z,13.37
2018-07-24T10:51:05.969Z,14.37
2018-07-24T10:53:37.658Z,14.10
2018-07-24T10:56:08.780Z,13.03
2018-07-24T10:58:40.748Z,14.37
2018-07-24T11:01:12.032Z,14.90
2018-07-24T11:03:43.950Z,14.30
2018-07-24T11:06:15.666Z,14.50
2018-07-24T11:08:47.325Z,13.37
2018-07-24T11:11:19.286Z,14.20
2018-07-24T11:13:51.447Z,13.70
2018-07-24T11:16:23.288Z,13.87
2018-07-24T11:18:56.326Z,14.33
2018-07-24T11:21:27.446Z,11.80
2018-07-24T11:23:58.746Z,13.37
2018-07-24T11:26:30.747Z,11.90
2018-07-24T11:29:02.326Z,13.47
2018-07-24T11:31:34.087Z,13.10
2018-07-24T11:34:06.137Z,11.87
2018-07-24T11:36:37.926Z,13.17
2018-07-24T11:39:12.725Z,13.37
2018-07-24T11:41:45.365Z,12.87
2018-07-24T11:44:16.373Z,15.43
2018-07-24T11:46:48.385Z,14.07
2018-07-24T11:49:19.965Z,13.40
2018-07-24T11:51:51.785Z,13.80
2018-07-24T11:54:23.714Z,13.53
2018-07-24T11:56:55.794Z,13.67
2018-07-24T11:59:27.912Z,14.43
2018-07-24T12:02:00.034Z,12.97
2018-07-24T12:04:31.932Z,12.63
2018-07-24T12:07:03.812Z,13.50
2018-07-24T12:09:35.612Z,13.50
2018-07-24T12:12:07.653Z,14.20
2018-07-24T12:14:39.779Z,14.23
2018-07-24T12:17:11.528Z,14.60
2018-07-24T12:19:43.864Z,14.73
2018-07-24T12:22:19.127Z,14.43
2018-07-24T12:24:50.454Z,14.30
2018-07-24T12:27:23.649Z,13.43
2018-07-24T12:29:56.589Z,14.23
2018-07-24T12:32:27.642Z,13.20
2018-07-24T12:34:59.487Z,13.17
2018-07-24T12:37:31.168Z,14.23
2018-07-24T12:40:03.570Z,13.17
2018-07-24T12:42:35.109Z,14.37
2018-07-24T12:45:07.770Z,14.73
2018-07-24T12:47:39.548Z,14.23
2018-07-24T12:50:12.488Z,17.70
2018-07-24T12:52:45.253Z,15.57
2018-07-24T12:55:16.743Z,15.07
2018-07-24T12:57:49.291Z,14.40
2018-07-24T13:00:20.476Z,14.93
2018-07-24T13:02:52.214Z,16.50
2018-07-24T13:05:23.981Z,15.87
2018-07-24T13:07:55.848Z,15.17
2018-07-24T13:10:27.885Z,15.73
2018-07-24T13:13:00.711Z,14.63
2018-07-24T13:15:32.246Z,16.80
2018-07-24T13:18:04.845Z,15.33
2018-07-24T13:20:36.771Z,17.03
2018-07-24T13:23:09.591Z,16.10
2018-07-24T13:25:42.067Z,15.20
2018-07-24T13:28:13.851Z,14.77
2018-07-24T13:30:45.971Z,15.60
2018-07-24T13:33:16.464Z,16.40
2018-07-24T13:35:47.517Z,15.87
2018-07-24T13:38:20.638Z,18.57
2018-07-24T13:40:51.656Z,14.27
2018-07-24T13:43:25.419Z,16.13
2018-07-24T13:45:57.824Z,14.77
2018-07-24T13:48:30.428Z,16.70
2018-07-24T13:51:01.908Z,12.77
2018-07-24T13:53:34.541Z,15.07
2018-07-24T13:56:05.647Z,15.13
2018-07-24T13:58:38.553Z,14.80
2018-07-24T14:01:13.126Z,15.80
2018-07-24T14:03:45.453Z,14.20
2018-07-24T14:06:17.951Z,16.20
2018-07-24T14:08:49.627Z,14.40
2018-07-24T14:11:22.735Z,14.70
2018-07-24T14:13:55.947Z,14.90
2018-07-24T14:16:27.065Z,13.63
2018-07-24T14:18:59.218Z,14.73
2018-07-24T14:21:31.347Z,15.40
2018-07-24T14:24:03.444Z,14.07
2018-07-24T14:26:35.209Z,14.83
2018-07-24T14:29:07.418Z,13.87
2018-07-24T14:31:39.623Z,14.27
2018-07-24T14:34:11.675Z,14.73
2018-07-24T14:36:45.259Z,15.00
2018-07-24T14:39:17.911Z,14.60
2018-07-24T14:41:49.525Z,14.07
2018-07-24T14:44:21.590Z,13.63
2018-07-24T14:46:53.790Z,14.40
2018-07-24T14:49:25.829Z,14.47
2018-07-24T14:51:58.030Z,13.50
2018-07-24T14:54:29.451Z,14.63
2018-07-24T14:57:01.691Z,13.20
2018-07-24T14:59:33.390Z,14.87
2018-07-24T15:02:05.770Z,14.57
2018-07-24T15:04:37.052Z,14.37
2018-07-24T15:07:07.689Z,13.60
2018-07-24T15:09:39.693Z,13.60
2018-07-24T15:12:11.914Z,13.43
2018-07-24T15:14:43.409Z,12.90
2018-07-24T15:17:15.491Z,13.07
2018-07-24T15:19:47.271Z,13.40
2018-07-24T15:22:19.289Z,12.00
2018-07-24T15:24:50.790Z,12.40
2018-07-24T15:27:22.132Z,13.00
2018-07-24T15:29:54.270Z,15.30
2018-07-24T15:32:26.851Z,14.17
2018-07-24T15:34:57.460Z,14.17
2018-07-24T15:37:29.329Z,15.07
2018-07-24T15:40:01.555Z,15.03
2018-07-24T15:42:32.570Z,15.47
2018-07-24T15:45:05.771Z,15.73
2018-07-24T15:47:37.330Z,14.70
2018-07-24T15:50:08.949Z,13.70
2018-07-24T15:52:40.832Z,16.20
2018-07-24T15:55:12.829Z,13.47
2018-07-24T15:57:45.106Z,14.37
2018-07-24T16:00:16.429Z,13.93
2018-07-24T16:02:48.591Z,13.70
2018-07-24T16:05:19.990Z,13.20
2018-07-24T16:07:52.292Z,13.80
2018-07-24T16:10:23.750Z,14.53
2018-07-24T16:12:55.410Z,13.40
2018-07-24T16:15:27.541Z,12.50
2018-07-24T16:17:59.529Z,12.90
2018-07-24T16:20:32.009Z,13.70
2018-07-24T16:23:03.512Z,12.17
2018-07-24T16:25:36.229Z,11.33
2018-07-24T16:28:07.949Z,12.30
2018-07-24T16:30:40.091Z,11.33
2018-07-24T16:33:12.149Z,11.50
2018-07-24T16:35:44.374Z,11.47
2018-07-24T16:38:16.309Z,17.43
2018-07-24T16:40:47.913Z,10.17
2018-07-24T16:43:20.071Z,8.93
2018-07-24T16:45:52.329Z,10.00
2018-07-24T16:48:24.470Z,8.80
2018-07-24T16:50:56.470Z,10.90
2018-07-24T16:53:28.711Z,11.03
2018-07-24T16:56:02.345Z,10.37
2018-07-24T16:58:35.030Z,11.57
2018-07-24T17:01:07.030Z,10.27
2018-07-24T17:03:39.191Z,11.70
2018-07-24T17:06:11.751Z,12.33
2018-07-24T17:08:44.010Z,11.77
2018-07-24T17:11:16.750Z,12.33
2018-07-24T17:13:48.575Z,11.87
2018-07-24T17:16:20.971Z,13.73
2018-07-24T17:18:53.090Z,13.00
2018-07-24T17:21:24.769Z,13.90
2018-07-24T17:23:57.250Z,13.37
2018-07-24T17:26:28.728Z,12.27
2018-07-24T17:29:02.591Z,8.87
2018-07-24T17:31:35.009Z,9.60
2018-07-24T17:34:07.550Z,10.40
2018-07-24T17:36:39.209Z,11.47
2018-07-24T17:39:12.509Z,11.53
2018-07-24T17:41:44.702Z,11.20
2018-07-24T17:44:16.769Z,12.60
2018-07-24T17:46:49.029Z,13.77
2018-07-24T17:49:21.126Z,10.47
2018-07-24T17:51:53.109Z,10.87
2018-07-24T17:54:25.850Z,10.10
2018-07-24T17:56:57.729Z,10.37
2018-07-24T17:59:29.729Z,10.50
2018-07-24T18:02:01.229Z,10.27
2018-07-24T18:04:33.349Z,10.30
2018-07-24T18:07:05.108Z,10.37
2018-07-24T18:09:37.989Z,9.20
2018-07-24T18:12:09.708Z,9.80
2018-07-24T18:14:42.469Z,8.83
2018-07-24T18:17:15.031Z,9.00
2018-07-24T18:19:46.549Z,9.00
2018-07-24T18:22:18.310Z,8.37
2018-07-24T18:24:50.071Z,8.60
2018-07-24T18:27:21.968Z,9.40
2018-07-24T18:29:53.909Z,7.93
2018-07-24T18:32:25.953Z,8.17
2018-07-24T18:34:57.308Z,8.97
2018-07-24T18:37:30.150Z,8.20
2018-07-24T18:40:02.590Z,9.60
2018-07-24T18:42:34.569Z,9.30
2018-07-24T18:45:07.489Z,7.93
2018-07-24T18:47:39.289Z,8.40
2018-07-24T18:50:11.411Z,8.10
2018-07-24T18:52:43.890Z,7.50
2018-07-24T18:55:15.769Z,7.83
2018-07-24T18:57:47.569Z,8.00
2018-07-24T19:00:18.449Z,9.33
2018-07-24T19:02:49.489Z,9.07
2018-07-24T19:05:21.761Z,10.30
2018-07-24T19:07:53.430Z,9.50
2018-07-24T19:10:25.769Z,10.27
2018-07-24T19:12:57.937Z,10.50
2018-07-24T19:15:29.829Z,10.40
2018-07-24T19:18:02.744Z,11.10
2018-07-24T19:20:34.690Z,10.60
2018-07-24T19:23:07.183Z,10.37
2018-07-24T19:25:39.623Z,10.00
2018-07-24T19:28:11.763Z,10.63
2018-07-24T19:30:43.664Z,10.40
2018-07-24T19:33:16.523Z,10.20
2018-07-24T19:35:48.184Z,10.80
2018-07-24T19:38:20.824Z,10.60
2018-07-24T19:40:52.843Z,11.43
2018-07-24T19:43:24.703Z,11.00
2018-07-24T19:45:58.923Z,10.53
2018-07-24T19:48:31.605Z,10.80
2018-07-24T19:51:03.384Z,10.60
2018-07-24T19:53:35.064Z,11.07
2018-07-24T19:56:07.103Z,10.30
2018-07-24T19:58:38.843Z,10.97
2018-07-24T20:01:10.723Z,10.67
2018-07-24T20:03:42.879Z,10.37
2018-07-24T20:06:14.690Z,9.80
2018-07-24T20:08:46.383Z,10.60
2018-07-24T20:11:18.723Z,11.17
2018-07-24T20:13:50.964Z,10.47
2018-07-24T20:16:22.593Z,11.43
2018-07-24T20:18:54.403Z,10.53
2018-07-24T20:21:26.543Z,10.43
2018-07-24T20:23:58.977Z,10.67
2018-07-24T20:26:30.683Z,10.87
2018-07-24T20:29:02.983Z,11.10
2018-07-24T20:31:35.363Z,10.87
2018-07-24T20:34:06.864Z,10.33
2018-07-24T20:36:39.523Z,11.40
2018-07-24T20:39:13.603Z,12.90
2018-07-24T20:41:45.811Z,11.37
2018-07-24T20:44:17.429Z,12.10
2018-07-24T20:46:50.318Z,13.17
2018-07-24T20:49:21.903Z,12.40
2018-07-24T20:51:54.003Z,12.63
2018-07-24T20:54:25.165Z,14.93
2018-07-24T20:56:57.803Z,13.73
2018-07-24T20:59:29.163Z,13.70
2018-07-24T21:02:01.004Z,13.00
2018-07-24T21:04:32.543Z,13.50
2018-07-24T21:07:05.444Z,12.80
2018-07-24T21:09:37.665Z,12.90
2018-07-24T21:12:10.484Z,12.40
2018-07-24T21:14:42.343Z,13.40
2018-07-24T21:17:14.084Z,12.40
2018-07-24T21:19:46.384Z,13.23
2018-07-24T21:22:18.605Z,12.63
2018-07-24T21:24:50.383Z,13.40
2018-07-24T21:27:22.668Z,13.07
2018-07-24T21:29:53.744Z,12.70
2018-07-24T21:32:26.244Z,12.27
2018-07-24T21:34:57.747Z,14.10
2018-07-24T21:37:30.243Z,12.20
2018-07-24T21:40:02.205Z,13.50
2018-07-24T21:42:33.999Z,11.60
2018-07-24T21:45:05.484Z,11.30
2018-07-24T21:47:37.745Z,12.23
2018-07-24T21:50:09.023Z,10.80
2018-07-24T21:52:41.289Z,12.20
2018-07-24T21:55:13.563Z,11.70
2018-07-24T21:57:45.883Z,14.37
2018-07-24T22:00:18.628Z,10.70
2018-07-24T22:02:50.887Z,11.80
2018-07-24T22:05:23.024Z,11.07
2018-07-24T22:07:55.823Z,12.03
2018-07-24T22:10:27.503Z,11.50
2018-07-24T22:13:00.084Z,11.80
2018-07-24T22:15:32.983Z,12.00
2018-07-24T22:18:04.750Z,13.00
2018-07-24T22:20:36.484Z,12.20
2018-07-24T22:23:09.124Z,12.47
2018-07-24T22:25:40.943Z,11.80
2018-07-24T22:28:12.464Z,11.13
2018-07-24T22:30:44.503Z,11.80
2018-07-24T22:33:16.343Z,11.50
2018-07-24T22:35:48.302Z,11.80
2018-07-24T22:38:20.822Z,12.57
2018-07-24T22:40:53.063Z,12.10
2018-07-24T22:43:24.644Z,11.50
2018-07-24T22:45:56.764Z,11.57
2018-07-24T22:48:28.783Z,12.30
2018-07-24T22:51:00.804Z,11.80
2018-07-24T22:53:32.462Z,11.63
2018-07-24T22:56:04.203Z,11.90
2018-07-24T22:58:35.943Z,12.03
2018-07-24T23:01:08.282Z,11.93
2018-07-24T23:03:39.602Z,12.57
2018-07-24T23:06:11.771Z,11.87
2018-07-24T23:08:43.248Z,12.10
2018-07-24T23:11:15.283Z,12.33
2018-07-24T23:13:46.702Z,12.37
2018-07-24T23:16:19.343Z,13.10
2018-07-24T23:18:51.146Z,13.50
2018-07-24T23:21:23.183Z,15.17
2018-07-24T23:23:54.824Z,12.40
2018-07-24T23:26:26.723Z,13.10
2018-07-24T23:28:58.542Z,14.33
2018-07-24T23:31:31.462Z,12.90
2018-07-24T23:34:03.683Z,14.07
2018-07-24T23:36:35.863Z,13.33
2018-07-24T23:39:09.783Z,12.80
2018-07-24T23:41:41.503Z,13.37
2018-07-24T23:44:13.482Z,13.23
2018-07-24T23:46:45.063Z,13.40
2018-07-24T23:49:17.582Z,13.53
2018-07-24T23:51:50.402Z,13.23
2018-07-24T23:54:22.062Z,12.77
2018-07-24T23:56:54.106Z,12.63
2018-07-24T23:59:25.263Z,12.43
